KJST/JST METAR and TAF weather

Enter ICAO airport designator
Station Type Date Time Source
KJST METAR 2020/07/11 04:54 UTC NOAA

KJST 110454Z AUTO 23006KT 10SM SCT095 19/18 A2980 RMK AO2 SLP070 T01940178 403110194


Station Type Date Time Source
KJST Decoded METAR 2020/07/11 04:54 UTC NOAA

JOHNSTOWN-CAMBRIA CO AIRPORT , PA, United States (KJST) 40-19N 078-50W 694M
Jul 11, 2020 - 12:54 AM EDT / 2020.07.11 0454 UTC
Wind: from the SW (230 degrees) at 7 MPH (6 KT):0
Visibility: 10 mile(s):0
Sky conditions: partly cloudy
Temperature: 66.9 F (19.4 C)
Dew Point: 64.0 F (17.8 C)
Relative Humidity: 90%
Pressure (altimeter): 29.8 in. Hg (1009 hPa)
ob: KJST 110454Z AUTO 23006KT 10SM SCT095 19/18 A2980 RMK AO2 SLP070 T01940178 403110194
cycle: 5

Station Type Date Time Source
KJST TAF 2020/07/11 05:45 UTC NOAA

TAF
AMD KJST 110443Z 1105/1124 20008KT P6SM SCT002 BKN090
FM110600 00000KT P6SM VCFG BKN050
FM110800 22008KT P6SM VCFG OVC019

Example: see airport list